Terminal Aerodrome Forecast
Issued by NWS Sterling, VA

Current Version | Previous Version | Text Only | Print | Product List | Glossary Off
Versions: 1 2 3 4 5 6 7 8 9 10 11 12 13 14 15 16 17 18 19 20 21 22 23 24 25 26 27 28 29 30

639
FTUS41 KLWX 232320
TAFDCA
TAF
KDCA 232320Z 2400/2424 02005KT 6SM -SHRA OVC050
     FM240100 VRB04KT P6SM VCSH BKN060
     FM240500 32005KT P6SM SCT130
     FM241600 31010KT P6SM SCT050=

USA.gov is the U.S. government's official web portal to all federal, state and local government web resources and services.